Time;durP1;ratioP1;P1;durP2;ratioP2;P2;SDS_P1;SDS_P2;PMS_P1;PMS_P2;Temp;Humidity;BMP_temperature;BMP_pressure;BME280_temperature;BME280_humidity;BME280_pressure;Samples;Min_cycle;Max_cycle;Signal;HPM_P1;HPM_P2
2023/11/10 00:01:08;;;;;;;;;;;;;;;16.75;49.83;101390.22;5095984;28;1125;-48
2023/11/10 00:03:33;;;;;;;;;;;;;;;16.96;49.08;101395.13;5095863;28;1162;-49
2023/11/10 00:05:59;;;;;;;;;;;;;;;16.54;49.91;101395.09;5095257;28;1089;-46
2023/11/10 00:08:25;;;;;;;;;;;;;;;16.27;49.93;101386.09;5095916;28;1073;-48
2023/11/10 00:10:51;;;;;;;;;;;;;;;16.11;49.95;101388.84;5095504;28;1166;-45
2023/11/10 00:13:18;;;;;;;;;;;;;;;17.04;49.44;101383.13;5095645;28;1026;-48
2023/11/10 00:15:43;;;;;;;;;;;;;;;16.64;49.52;101376.75;5095202;28;2251;-47
2023/11/10 00:18:09;;;;;;;;;;;;;;;16.35;50.16;101377.63;5095591;28;1162;-46
2023/11/10 00:20:36;;;;;;;;;;;;;;;16.73;50.04;101378.00;5095652;28;1202;-46
2023/11/10 00:23:03;;;;;;;;;;;;;;;16.97;49.07;101380.00;5096078;28;1223;-53
2023/11/10 00:25:28;;;;;;;;;;;;;;;16.46;50.05;101379.66;5095395;28;1069;-48
2023/11/10 00:27:54;;;;;;;;;;;;;;;16.23;49.92;101373.94;5095374;28;1018;-45
2023/11/10 00:30:20;;;;;;;;;;;;;;;16.07;50.09;101373.16;5093909;28;1130;-48
2023/11/10 00:32:45;;;;;;;;;;;;;;;15.95;50.27;101369.44;5087910;28;1066;-48
2023/11/10 00:35:12;;;;;;;;;;;;;;;16.83;49.93;101362.31;5095597;28;1972;-47
2023/11/10 00:37:38;;;;;;;;;;;;;;;16.77;49.44;101355.56;5095439;28;1081;-45
2023/11/10 00:40:04;;;;;;;;;;;;;;;16.33;50.05;101352.97;5095634;28;1050;-48
2023/11/10 00:42:30;;;;;;;;;;;;;;;16.29;50.60;101348.81;5093538;28;1070;-45
2023/11/10 00:44:56;;;;;;;;;;;;;;;17.22;48.35;101342.09;5101581;28;2406;-43
2023/11/10 00:47:22;;;;;;;;;;;;;;;16.60;49.96;101338.91;5093807;28;1071;-42
2023/11/10 00:49:47;;;;;;;;;;;;;;;16.39;49.72;101335.81;5093758;28;1098;-50
2023/11/10 00:52:13;;;;;;;;;;;;;;;16.14;49.98;101334.69;5094078;28;1095;-48
2023/11/10 00:54:39;;;;;;;;;;;;;;;16.06;50.59;101337.84;5094905;28;1889;-50
2023/11/10 00:57:04;;;;;;;;;;;;;;;17.27;48.71;101335.63;5095431;28;1102;-46
2023/11/10 00:59:30;;;;;;;;;;;;;;;16.74;49.40;101337.19;5093675;28;1287;-49
2023/11/10 01:01:55;;;;;;;;;;;;;;;16.42;50.03;101338.28;5095534;28;1115;-48
2023/11/10 01:04:21;;;;;;;;;;;;;;;16.18;50.19;101356.59;5094936;28;1023;-49
2023/11/10 01:06:46;;;;;;;;;;;;;;;17.23;48.72;101343.78;5093665;28;1055;-50
2023/11/10 01:09:12;;;;;;;;;;;;;;;16.89;49.01;101345.97;5093737;28;1129;-48
2023/11/10 01:11:38;;;;;;;;;;;;;;;16.47;49.81;101364.53;5094848;28;1138;-46
2023/11/10 01:14:04;;;;;;;;;;;;;;;16.28;50.00;101358.56;5097364;28;2378;-46
2023/11/10 01:16:30;;;;;;;;;;;;;;;16.12;49.85;101358.69;5131397;27;1913;-46
2023/11/10 01:18:56;;;;;;;;;;;;;;;17.15;48.84;101345.25;5098492;28;1152;-46
2023/11/10 01:21:21;;;;;;;;;;;;;;;16.68;49.38;101349.06;5098925;28;1190;-48
2023/11/10 01:23:47;;;;;;;;;;;;;;;16.36;50.09;101341.34;5098613;28;1054;-48
2023/11/10 01:26:13;;;;;;;;;;;;;;;17.20;48.54;101332.50;5098588;28;1179;-45
2023/11/10 01:28:39;;;;;;;;;;;;;;;16.69;49.46;101334.81;5097133;28;1250;-46
2023/11/10 01:31:04;;;;;;;;;;;;;;;16.39;49.74;101322.53;5098886;28;1050;-45
2023/11/10 01:33:30;;;;;;;;;;;;;;;16.18;49.72;101322.09;5098653;28;1039;-49
2023/11/10 01:35:56;;;;;;;;;;;;;;;16.86;49.41;101306.31;5094454;28;1982;-49
2023/11/10 01:38:21;;;;;;;;;;;;;;;17.01;48.53;101317.75;5098356;28;1083;-47
2023/11/10 01:40:48;;;;;;;;;;;;;;;16.51;49.51;101319.13;5098586;28;1038;-44
2023/11/10 01:43:14;;;;;;;;;;;;;;;16.27;49.79;101317.06;5098188;28;1138;-46
2023/11/10 01:45:40;;;;;;;;;;;;;;;17.05;48.86;101313.91;5094124;28;2657;-45
2023/11/10 01:48:10;;;;;;;;;;;;;;;16.81;48.98;101319.03;5098300;28;1158;-46
2023/11/10 01:50:36;;;;;;;;;;;;;;;16.40;49.83;101310.97;5097184;28;1120;-46
2023/11/10 01:53:03;;;;;;;;;;;;;;;16.20;49.92;101314.91;5098128;28;1066;-49
2023/11/10 01:55:28;;;;;;;;;;;;;;;16.01;50.09;101316.88;5096027;28;1967;-47
2023/11/10 01:57:54;;;;;;;;;;;;;;;16.99;49.06;101316.97;5096994;28;1061;-46
2023/11/10 02:00:20;;;;;;;;;;;;;;;16.62;49.67;101320.22;5096719;28;1245;-47
2023/11/10 02:02:47;;;;;;;;;;;;;;;16.23;49.86;101323.50;5097943;28;1157;-47
2023/11/10 02:05:12;;;;;;;;;;;;;;;16.07;50.21;101320.94;5097526;28;1200;-48
2023/11/10 02:07:38;;;;;;;;;;;;;;;16.77;49.81;101319.25;5097665;28;1304;-48
2023/11/10 02:10:04;;;;;;;;;;;;;;;16.69;49.24;101318.03;5113383;28;1161;-48
2023/11/10 02:12:29;;;;;;;;;;;;;;;16.25;49.95;101324.25;5096211;28;1170;-45
2023/11/10 02:14:55;;;;;;;;;;;;;;;16.12;50.06;101326.84;5097420;28;2270;-47
2023/11/10 02:17:20;;;;;;;;;;;;;;;15.89;50.13;101313.16;5113220;28;1008;-46
2023/11/10 02:19:46;;;;;;;;;;;;;;;16.77;49.75;101319.25;5096976;28;848;-49
2023/11/10 02:22:12;;;;;;;;;;;;;;;16.68;49.17;101321.66;5095812;28;1105;-46
2023/11/10 02:24:38;;;;;;;;;;;;;;;16.30;49.70;101313.34;5095216;28;1118;-45
2023/11/10 02:27:04;;;;;;;;;;;;;;;16.06;49.89;101313.94;5079468;28;1158;-49
2023/11/10 02:29:30;;;;;;;;;;;;;;;16.95;49.01;101316.31;5097452;28;1166;-50
2023/11/10 02:31:56;;;;;;;;;;;;;;;16.78;48.80;101312.13;5097182;28;1170;-47
2023/11/10 02:34:22;;;;;;;;;;;;;;;16.32;49.91;101306.16;5130384;27;1161;-48
2023/11/10 02:36:50;;;;;;;;;;;;;;;16.08;49.92;101305.88;5095611;28;1905;-50
2023/11/10 02:39:16;;;;;;;;;;;;;;;16.56;49.90;101302.91;5093050;28;1109;-48
2023/11/10 02:41:42;;;;;;;;;;;;;;;16.98;48.71;101297.50;5097320;28;1078;-48
2023/11/10 02:44:07;;;;;;;;;;;;;;;16.50;49.50;101296.16;5097040;28;1813;-46
2023/11/10 02:46:33;;;;;;;;;;;;;;;16.38;50.21;101300.44;5129818;27;1376;-47
2023/11/10 02:48:59;;;;;;;;;;;;;;;17.22;47.92;101291.56;5095997;28;1121;-44
2023/11/10 02:51:24;;;;;;;;;;;;;;;16.63;49.09;101301.53;5095596;28;1086;-48
2023/11/10 02:53:50;;;;;;;;;;;;;;;16.33;49.52;101293.72;5096398;28;1030;-47
2023/11/10 02:56:15;;;;;;;;;;;;;;;16.16;49.89;101288.50;5093782;28;1905;-46
2023/11/10 02:58:41;;;;;;;;;;;;;;;16.28;50.41;101286.06;5090954;28;1109;-47
2023/11/10 03:01:07;;;;;;;;;;;;;;;17.11;48.38;101291.44;5095869;28;1196;-50
2023/11/10 03:03:32;;;;;;;;;;;;;;;16.60;49.13;101292.94;5096804;28;1030;-50
2023/11/10 03:05:58;;;;;;;;;;;;;;;16.32;49.38;101290.22;5096516;28;987;-48
2023/11/10 03:08:25;;;;;;;;;;;;;;;16.12;49.60;101292.31;5096376;28;905;-47
2023/11/10 03:10:50;;;;;;;;;;;;;;;16.56;49.93;101302.03;5096288;28;1090;-52
2023/11/10 03:13:16;;;;;;;;;;;;;;;17.00;48.36;101300.94;5078218;28;1046;-47
2023/11/10 03:15:42;;;;;;;;;;;;;;;16.46;49.58;101297.31;5096595;28;2194;-52
2023/11/10 03:18:09;;;;;;;;;;;;;;;16.16;50.07;101296.47;5096256;28;1031;-45
2023/11/10 03:20:34;;;;;;;;;;;;;;;16.10;50.14;101296.88;5096014;28;1023;-49
2023/11/10 03:23:00;;;;;;;;;;;;;;;17.23;48.34;101284.44;5096652;28;1034;-51
2023/11/10 03:25:25;;;;;;;;;;;;;;;16.69;48.96;101272.88;5096075;28;1146;-49
2023/11/10 03:27:51;;;;;;;;;;;;;;;16.35;49.37;101287.38;5096250;28;1073;-47
2023/11/10 03:30:17;;;;;;;;;;;;;;;16.56;49.82;101286.97;5128880;27;1122;-48
2023/11/10 03:32:42;;;;;;;;;;;;;;;16.93;48.61;101283.72;5096182;28;845;-51
2023/11/10 03:35:09;;;;;;;;;;;;;;;16.53;49.17;101287.16;5094559;28;1901;-47
2023/11/10 03:37:35;;;;;;;;;;;;;;;16.27;49.73;101282.53;5094849;28;1186;-51
2023/11/10 03:40:01;;;;;;;;;;;;;;;16.30;50.12;101286.78;5095792;28;1081;-50
2023/11/10 03:42:28;;;;;;;;;;;;;;;17.15;48.17;101286.78;5092305;28;996;-49
2023/11/10 03:44:53;;;;;;;;;;;;;;;16.59;49.04;101285.91;5094606;28;2234;-50
2023/11/10 03:47:19;;;;;;;;;;;;;;;16.26;49.47;101282.66;5088811;28;1516;-45
2023/11/10 03:49:44;;;;;;;;;;;;;;;16.19;50.07;101276.00;5095890;28;1026;-42
2023/11/10 03:52:10;;;;;;;;;;;;;;;17.29;47.88;101275.19;5096106;28;1129;-48
2023/11/10 03:54:35;;;;;;;;;;;;;;;16.68;48.94;101268.50;5095894;28;1975;-46
2023/11/10 03:57:01;;;;;;;;;;;;;;;16.34;49.30;101272.41;5095597;28;1046;-44
2023/11/10 03:59:26;;;;;;;;;;;;;;;16.09;49.52;101265.13;5086512;28;1179;-51
2023/11/10 04:01:52;;;;;;;;;;;;;;;16.66;49.73;101255.34;5094492;28;1015;-46
2023/11/10 04:04:18;;;;;;;;;;;;;;;17.05;48.24;101263.41;5090486;28;1488;-44
2023/11/10 04:06:43;;;;;;;;;;;;;;;16.51;49.57;101262.50;5082010;28;1184;-44
2023/11/10 04:09:10;;;;;;;;;;;;;;;16.23;49.81;101251.81;5094798;28;1102;-47
2023/11/10 04:11:35;;;;;;;;;;;;;;;16.10;49.82;101257.06;5094341;28;1243;-45
2023/11/10 04:14:01;;;;;;;;;;;;;;;17.20;48.21;101261.56;5094055;28;2400;-45
2023/11/10 04:16:27;;;;;;;;;;;;;;;16.86;48.35;101261.13;5092382;28;1971;-44
2023/11/10 04:18:53;;;;;;;;;;;;;;;16.43;49.40;101259.47;5093356;28;1336;-43
2023/11/10 04:21:22;;;;;;;;;;;;;;;16.23;49.49;101262.44;5093212;28;1094;-45
2023/11/10 04:23:50;;;;;;;;;;;;;;;16.03;49.82;101269.84;5092087;28;1276;-43
2023/11/10 04:26:16;;;;;;;;;;;;;;;16.85;48.88;101262.94;5075346;28;1059;-45
2023/11/10 04:28:47;;;;;;;;;;;;;;;16.85;48.50;101267.41;5089472;28;1431;-46
2023/11/10 04:31:16;;;;;;;;;;;;;;;16.44;49.25;101271.78;5095381;28;1390;-43
2023/11/10 04:33:44;;;;;;;;;;;;;;;16.26;50.01;101270.22;5082046;28;1086;-47
2023/11/10 04:36:12;;;;;;;;;;;;;;;17.22;47.67;101278.28;5095259;28;1979;-43
2023/11/10 04:38:47;;;;;;;;;;;;;;;16.61;49.13;101270.72;5095819;28;1102;-41
2023/11/10 04:41:15;;;;;;;;;;;;;;;16.28;49.66;101267.47;5095389;28;1007;-43
2023/11/10 04:43:40;;;;;;;;;;;;;;;16.11;49.79;101257.91;5094968;28;2223;-41
2023/11/10 04:46:06;;;;;;;;;;;;;;;16.14;49.86;101266.56;5095355;28;1085;-39
2023/11/10 04:48:31;;;;;;;;;;;;;;;17.13;48.01;101273.59;5097652;28;1046;-45
2023/11/10 04:50:57;;;;;;;;;;;;;;;16.52;49.40;101270.34;5094514;28;1403;-37
2023/11/10 04:53:22;;;;;;;;;;;;;;;16.23;49.88;101278.38;5087416;28;1359;-47
2023/11/10 04:55:48;;;;;;;;;;;;;;;16.40;49.03;101276.44;5091019;28;1913;-44
2023/11/10 04:58:14;;;;;;;;;;;;;;;17.07;48.58;101265.97;5087423;28;1433;-42
2023/11/10 05:00:40;;;;;;;;;;;;;;;16.85;48.63;101272.72;5096032;28;841;-48
2023/11/10 05:03:06;;;;;;;;;;;;;;;16.49;49.24;101269.69;5098152;28;1105;-46
2023/11/10 05:05:31;;;;;;;;;;;;;;;16.23;49.68;101273.06;5090730;28;889;-46
2023/11/10 05:07:57;;;;;;;;;;;;;;;17.03;48.86;101273.31;5098054;28;1054;-40
2023/11/10 05:10:23;;;;;;;;;;;;;;;16.85;48.78;101270.91;5098560;28;1209;-42
2023/11/10 05:12:48;;;;;;;;;;;;;;;16.49;49.42;101262.59;5098701;28;1151;-41
2023/11/10 05:15:14;;;;;;;;;;;;;;;16.45;49.97;101270.88;5098799;28;2663;-41
2023/11/10 05:17:43;;;;;;;;;;;;;;;17.08;48.02;101270.34;5098784;28;1152;-46
2023/11/10 05:20:12;;;;;;;;;;;;;;;16.57;49.02;101277.16;5098122;28;1055;-44
2023/11/10 05:22:39;;;;;;;;;;;;;;;16.28;49.83;101270.13;5084980;28;1060;-45
2023/11/10 05:25:06;;;;;;;;;;;;;;;16.11;49.82;101271.19;5098341;28;979;-44
2023/11/10 05:27:31;;;;;;;;;;;;;;;17.07;48.87;101273.94;5097673;28;1173;-46
2023/11/10 05:29:57;;;;;;;;;;;;;;;16.87;48.67;101268.16;5097211;28;1130;-46
2023/11/10 05:32:22;;;;;;;;;;;;;;;17.34;47.76;101270.41;5097736;28;1077;-48
2023/11/10 05:34:50;;;;;;;;;;;;;;;16.32;49.26;101281.38;5097746;28;1909;-46
2023/11/10 05:37:18;;;;;;;;;;;;;;;15.88;48.47;101278.75;5098242;28;1049;-43
2023/11/10 05:39:44;;;;;;;;;;;;;;;15.73;47.83;101273.41;5098341;28;1070;-45
2023/11/10 05:42:09;;;;;;;;;;;;;;;15.63;47.14;101288.22;5098522;28;1014;-46
2023/11/10 05:44:35;;;;;;;;;;;;;;;15.51;46.68;101288.00;5096748;28;2400;-47
2023/11/10 05:47:01;;;;;;;;;;;;;;;15.37;45.77;101282.66;5092326;28;1447;-45
2023/11/10 05:49:26;;;;;;;;;;;;;;;15.18;46.26;101278.47;5096403;28;982;-46
2023/11/10 05:51:52;;;;;;;;;;;;;;;15.23;45.44;101288.78;5098275;28;1066;-46
2023/11/10 05:54:18;;;;;;;;;;;;;;;15.12;45.56;101284.97;5098108;28;1081;-46
2023/11/10 05:56:45;;;;;;;;;;;;;;;15.79;47.37;101282.81;5097888;28;1980;-45
2023/11/10 05:59:10;;;;;;;;;;;;;;;15.55;47.88;101288.66;5098040;28;1113;-42
2023/11/10 06:01:36;;;;;;;;;;;;;;;15.30;46.90;101285.66;5097965;28;991;-45
2023/11/10 06:04:02;;;;;;;;;;;;;;;15.29;45.98;101291.06;5097423;28;1033;-48
2023/11/10 06:06:28;;;;;;;;;;;;;;;15.12;46.05;101289.38;5097413;28;1420;-43
2023/11/10 06:08:54;;;;;;;;;;;;;;;15.03;45.21;101285.50;5097848;28;1030;-44
2023/11/10 06:11:20;;;;;;;;;;;;;;;14.98;45.16;101284.91;5094250;28;1362;-45
2023/11/10 06:13:47;;;;;;;;;;;;;;;14.99;44.51;101284.81;5089155;28;1837;-44
2023/11/10 06:16:12;;;;;;;;;;;;;;;14.91;44.67;101285.25;5088477;28;1968;-43
2023/11/10 06:18:38;;;;;;;;;;;;;;;14.84;44.43;101281.25;5088325;28;1405;-44
2023/11/10 06:21:04;;;;;;;;;;;;;;;15.14;45.37;101283.06;5090148;28;1727;-44
2023/11/10 06:23:30;;;;;;;;;;;;;;;16.27;47.03;101284.34;5086298;28;1093;-44
2023/11/10 06:25:55;;;;;;;;;;;;;;;15.50;47.50;101286.28;5083972;28;1462;-41
2023/11/10 06:28:21;;;;;;;;;;;;;;;15.34;46.36;101282.84;5084767;28;1326;-43
2023/11/10 06:30:46;;;;;;;;;;;;;;;15.13;45.69;101284.00;5097717;28;1069;-47
2023/11/10 06:33:12;;;;;;;;;;;;;;;15.12;45.34;101284.09;5097154;28;1197;-42
2023/11/10 06:35:37;;;;;;;;;;;;;;;16.11;46.50;101266.75;5095273;28;1969;-45
2023/11/10 06:38:03;;;;;;;;;;;;;;;15.42;46.61;101278.78;5086598;28;1237;-44
2023/11/10 06:40:29;;;;;;;;;;;;;;;15.34;45.79;101274.88;5086494;28;1288;-46
2023/11/10 06:42:54;;;;;;;;;;;;;;;15.36;45.56;101270.34;5112113;27;1362;-41
2023/11/10 06:45:20;;;;;;;;;;;;;;;16.59;47.09;101276.13;5085905;28;2471;-46
2023/11/10 06:47:45;;;;;;;;;;;;;;;15.84;47.44;101272.78;5085474;28;1304;-44
2023/11/10 06:50:11;;;;;;;;;;;;;;;15.55;47.00;101272.75;5087124;28;1289;-43
2023/11/10 06:52:37;;;;;;;;;;;;;;;15.45;45.94;101267.13;5096512;28;1062;-43
2023/11/10 06:55:02;;;;;;;;;;;;;;;15.24;45.31;101269.28;5083128;28;1910;-44
2023/11/10 06:57:28;;;;;;;;;;;;;;;15.22;44.76;101256.13;5090631;28;952;-44
2023/11/10 06:59:54;;;;;;;;;;;;;;;15.13;44.58;101262.81;5096676;28;1077;-45
2023/11/10 07:02:19;;;;;;;;;;;;;;;15.93;46.28;101259.91;5096904;28;1120;-42
2023/11/10 07:04:46;;;;;;;;;;;;;;;15.37;46.35;101257.00;5085270;28;1304;-45
2023/11/10 07:07:12;;;;;;;;;;;;;;;15.19;45.58;101258.94;5085610;28;1537;-46
2023/11/10 07:09:38;;;;;;;;;;;;;;;16.18;44.23;101256.59;5090738;28;1152;-48
2023/11/10 07:12:03;;;;;;;;;;;;;;;15.24;44.79;101259.53;5094107;28;1025;-46
2023/11/10 07:14:30;;;;;;;;;;;;;;;15.11;44.45;101250.59;5095622;28;2457;-42
2023/11/10 07:16:56;;;;;;;;;;;;;;;14.98;44.48;101250.47;5096710;28;1905;-42
2023/11/10 07:19:22;;;;;;;;;;;;;;;14.93;44.58;101240.97;5090735;28;1553;-42
2023/11/10 07:21:48;;;;;;;;;;;;;;;14.90;44.28;101233.22;5093186;28;1102;-42
2023/11/10 07:24:13;;;;;;;;;;;;;;;14.90;44.04;101237.66;5096552;28;998;-39
2023/11/10 07:26:39;;;;;;;;;;;;;;;14.78;43.87;101231.25;5096472;28;1145;-39
2023/11/10 07:29:05;;;;;;;;;;;;;;;14.79;43.89;101233.81;5096526;28;1031;-42
2023/11/10 07:31:31;;;;;;;;;;;;;;;14.68;43.98;101229.13;5087691;28;1449;-37
2023/11/10 07:33:57;;;;;;;;;;;;;;;14.71;43.93;101229.88;5096208;28;1194;-43
2023/11/10 07:36:23;;;;;;;;;;;;;;;14.66;43.59;101236.28;5096768;28;1984;-41
2023/11/10 07:38:49;;;;;;;;;;;;;;;14.59;43.97;101234.94;5091683;28;1069;-42
2023/11/10 07:41:14;;;;;;;;;;;;;;;14.57;43.68;101228.88;5093895;28;988;-44
2023/11/10 07:43:40;;;;;;;;;;;;;;;14.52;43.60;101223.84;5094835;28;2237;-41
2023/11/10 07:46:06;;;;;;;;;;;;;;;14.51;43.60;101229.22;5093411;28;1077;-42
2023/11/10 07:48:32;;;;;;;;;;;;;;;14.56;43.59;101230.66;5092380;28;1035;-43
2023/11/10 07:50:58;;;;;;;;;;;;;;;14.47;43.70;101227.69;5083945;28;1308;-40
2023/11/10 07:53:26;;;;;;;;;;;;;;;14.49;43.63;101231.97;5093785;28;1086;-38
2023/11/10 07:55:52;;;;;;;;;;;;;;;14.40;43.58;101217.44;5096060;28;1981;-40
2023/11/10 07:58:18;;;;;;;;;;;;;;;14.38;44.00;101227.25;5094474;28;1110;-42
2023/11/10 08:00:45;;;;;;;;;;;;;;;14.36;43.73;101225.66;5095455;28;1026;-43
2023/11/10 08:03:11;;;;;;;;;;;;;;;14.29;44.13;101225.13;5090650;28;1355;-42
2023/11/10 08:05:37;;;;;;;;;;;;;;;14.34;43.75;101225.75;5087120;28;1308;-36
2023/11/10 08:08:05;;;;;;;;;;;;;;;14.30;43.83;101226.84;5091791;28;996;-46
2023/11/10 08:10:31;;;;;;;;;;;;;;;14.28;43.97;101220.78;5095408;28;1079;-44
2023/11/10 08:12:56;;;;;;;;;;;;;;;14.25;43.73;101221.81;5095661;28;1097;-40
2023/11/10 08:15:22;;;;;;;;;;;;;;;14.62;45.00;101237.41;5100259;28;2110;-38
2023/11/10 08:17:48;;;;;;;;;;;;;;;14.90;45.97;101233.22;5095782;28;1126;-42
2023/11/10 08:20:13;;;;;;;;;;;;;;;14.62;45.76;101229.47;5094164;28;2275;-47
2023/11/10 08:22:39;;;;;;;;;;;;;;;14.52;45.51;101231.78;5095403;28;1928;-45
2023/11/10 08:25:05;;;;;;;;;;;;;;;14.44;44.86;101224.28;5099860;28;1847;-43
2023/11/10 08:27:32;;;;;;;;;;;;;;;14.44;44.50;101223.44;5097931;28;2168;-42
2023/11/10 08:29:58;;;;;;;;;;;;;;;14.35;44.27;101222.16;5108916;28;2063;-38
2023/11/10 08:32:24;;;;;;;;;;;;;;;14.36;44.18;101215.06;5094522;28;2113;-41
2023/11/10 08:34:49;;;;;;;;;;;;;;;14.32;44.27;101217.88;5087088;28;1902;-37
2023/11/10 08:37:15;;;;;;;;;;;;;;;14.27;44.27;101212.00;5081014;28;1049;-40
2023/11/10 08:39:40;;;;;;;;;;;;;;;15.24;45.51;101210.97;5087078;28;1284;-37
2023/11/10 08:42:06;;;;;;;;;;;;;;;14.70;46.10;101199.91;5091225;28;1307;-42
2023/11/10 08:44:32;;;;;;;;;;;;;;;14.65;45.25;101196.66;5088681;28;1228;-38
2023/11/10 08:46:57;;;;;;;;;;;;;;;14.50;45.31;101196.59;5095141;28;1344;-39
2023/11/10 08:49:23;;;;;;;;;;;;;;;14.51;44.53;101189.53;5090815;28;1110;-40
2023/11/10 08:51:49;;;;;;;;;;;;;;;14.38;44.55;101189.38;5095473;28;1134;-42
2023/11/10 08:54:15;;;;;;;;;;;;;;;14.28;44.44;101181.09;5099207;28;904;-47
2023/11/10 08:56:41;;;;;;;;;;;;;;;14.31;44.18;101176.47;5097962;28;1901;-45
2023/11/10 08:59:08;;;;;;;;;;;;;;;14.27;44.20;101164.34;5098599;28;948;-44
2023/11/10 09:01:34;;;;;;;;;;;;;;;14.29;44.27;101158.97;5098914;28;1042;-42
2023/11/10 09:03:59;;;;;;;;;;;;;;;14.25;43.90;101158.28;5095387;28;2320;-44
2023/11/10 09:06:25;;;;;;;;;;;;;;;14.11;44.35;101152.94;5088173;28;1075;-46
2023/11/10 09:08:51;;;;;;;;;;;;;;;14.80;45.37;101155.22;5093458;28;1332;-44
2023/11/10 09:11:17;;;;;;;;;;;;;;;14.53;45.61;101151.41;5098121;28;1045;-42
2023/11/10 09:13:43;;;;;;;;;;;;;;;14.40;45.05;101145.97;5099423;28;1137;-45
2023/11/10 09:16:08;;;;;;;;;;;;;;;14.31;44.75;101150.00;5098978;28;1980;-44
2023/11/10 09:18:34;;;;;;;;;;;;;;;14.26;44.70;101143.28;5098545;28;1018;-41
2023/11/10 09:21:00;;;;;;;;;;;;;;;14.27;44.74;101147.63;5099151;28;1166;-44
2023/11/10 09:23:28;;;;;;;;;;;;;;;14.20;44.53;101136.53;5098559;28;888;-46
2023/11/10 09:25:56;;;;;;;;;;;;;;;14.21;44.15;101138.25;5098777;28;1130;-45
2023/11/10 09:28:27;;;;;;;;;;;;;;;14.20;44.03;101136.53;5098004;28;1051;-46
2023/11/10 09:30:53;;;;;;;;;;;;;;;14.22;43.60;101123.22;5098545;28;1126;-53
2023/11/10 09:33:19;;;;;;;;;;;;;;;14.56;45.17;101116.81;5087092;28;1826;-44
2023/11/10 09:35:45;;;;;;;;;;;;;;;14.75;45.79;101104.28;5096497;28;1968;-41
2023/11/10 09:38:10;;;;;;;;;;;;;;;14.52;45.45;101098.56;5096100;28;1468;-39
2023/11/10 09:40:36;;;;;;;;;;;;;;;14.39;44.66;101088.69;5097535;28;992;-43
2023/11/10 09:43:02;;;;;;;;;;;;;;;14.35;45.09;101097.75;5088124;28;1332;-42
2023/11/10 09:45:27;;;;;;;;;;;;;;;14.69;45.68;101087.84;5092779;28;1105;-45
2023/11/10 09:47:53;;;;;;;;;;;;;;;14.71;46.07;101084.25;5089613;28;1063;-41
2023/11/10 09:50:18;;;;;;;;;;;;;;;14.48;45.83;101082.00;5088319;28;1312;-40
2023/11/10 09:52:44;;;;;;;;;;;;;;;14.40;45.50;101071.00;5085566;28;1209;-43
2023/11/10 09:55:10;;;;;;;;;;;;;;;14.42;44.87;101063.84;5093623;28;1909;-43
2023/11/10 09:57:35;;;;;;;;;;;;;;;14.30;44.81;101062.75;5090110;28;1168;-43
2023/11/10 10:00:03;;;;;;;;;;;;;;;14.28;44.54;101052.25;5082242;28;1063;-42
2023/11/10 10:02:30;;;;;;;;;;;;;;;14.31;44.10;101059.19;5091761;28;1037;-44
2023/11/10 10:04:55;;;;;;;;;;;;;;;14.28;44.21;101051.44;5098005;28;2492;-42
2023/11/10 10:07:22;;;;;;;;;;;;;;;14.19;43.98;101050.16;5097858;28;1201;-47
2023/11/10 10:09:47;;;;;;;;;;;;;;;14.15;44.33;101054.78;5097577;28;1042;-42
2023/11/10 10:12:13;;;;;;;;;;;;;;;14.72;45.32;101055.00;5081660;28;1142;-44
2023/11/10 10:14:39;;;;;;;;;;;;;;;14.64;46.01;101046.69;5068781;28;1063;-43
2023/11/10 10:17:04;;;;;;;;;;;;;;;14.44;45.76;101044.28;5087442;28;1906;-44
2023/11/10 10:19:30;;;;;;;;;;;;;;;14.34;45.36;101032.53;5076421;28;1156;-48
2023/11/10 10:21:56;;;;;;;;;;;;;;;14.30;44.89;101031.84;5068435;28;1391;-43
2023/11/10 10:24:22;;;;;;;;;;;;;;;14.26;44.78;101026.84;5072778;28;1108;-42
2023/11/10 10:26:47;;;;;;;;;;;;;;;14.25;44.49;101035.69;5068641;28;1047;-47
2023/11/10 10:29:13;;;;;;;;;;;;;;;14.32;44.26;101029.13;5065044;28;1126;-52
2023/11/10 10:31:40;;;;;;;;;;;;;;;14.24;44.35;101016.34;5060808;28;1175;-50
2023/11/10 10:34:06;;;;;;;;;;;;;;;14.13;44.27;101011.66;5069777;28;2558;-47
2023/11/10 10:36:31;;;;;;;;;;;;;;;14.12;44.07;101014.41;5075586;28;1974;-49
2023/11/10 10:38:58;;;;;;;;;;;;;;;14.18;44.06;101014.06;5071800;28;1508;-48
2023/11/10 10:41:24;;;;;;;;;;;;;;;14.14;43.98;101009.88;5061671;28;1480;-39
2023/11/10 10:43:50;;;;;;;;;;;;;;;14.12;43.88;101001.19;5060383;28;1122;-44
2023/11/10 10:46:17;;;;;;;;;;;;;;;14.08;43.94;100998.72;5065739;28;1402;-45
2023/11/10 10:48:43;;;;;;;;;;;;;;;14.57;45.20;101006.47;5077826;28;1135;-44
2023/11/10 10:51:08;;;;;;;;;;;;;;;14.62;45.88;101012.34;5050003;28;1075;-45
2023/11/10 10:53:34;;;;;;;;;;;;;;;14.35;45.68;101002.47;5076074;28;1357;-46
2023/11/10 10:56:01;;;;;;;;;;;;;;;14.31;45.26;101000.97;5061140;28;1906;-46
2023/11/10 10:58:27;;;;;;;;;;;;;;;14.24;45.06;101000.47;5076693;28;1384;-45
2023/11/10 11:00:52;;;;;;;;;;;;;;;14.12;44.98;101002.03;5058176;28;1016;-45
2023/11/10 11:03:21;;;;;;;;;;;;;;;14.90;46.07;100989.50;5059983;28;1852;-43
2023/11/10 11:05:51;;;;;;;;;;;;;;;14.67;46.69;100985.59;5062460;28;1270;-43
2023/11/10 11:08:20;;;;;;;;;;;;;;;14.47;45.88;100981.50;5061685;28;1294;-45
2023/11/10 11:11:05;;;;;;;;;;;;;;;14.35;45.83;100983.94;5074775;28;1476;-44
2023/11/10 11:13:44;;;;;;;;;;;;;;;14.29;45.30;100976.38;5096768;28;1118;-44
2023/11/10 11:16:22;;;;;;;;;;;;;;;14.28;44.76;100978.16;5092890;28;2001;-45
2023/11/10 11:19:16;;;;;;;;;;;;;;;14.27;44.63;100975.63;5094620;28;1209;-43
2023/11/10 11:21:42;;;;;;;;;;;;;;;14.22;44.37;100961.81;5091192;28;1654;-40
2023/11/10 11:24:08;;;;;;;;;;;;;;;14.22;44.16;100977.69;5096398;28;1149;-44
2023/11/10 11:26:34;;;;;;;;;;;;;;;14.56;45.43;100980.97;5096453;28;1002;-47
2023/11/10 11:29:01;;;;;;;;;;;;;;;14.93;46.23;100977.88;5096703;28;1109;-45
2023/11/10 11:31:27;;;;;;;;;;;;;;;14.52;46.29;100977.66;5096137;28;1097;-48
2023/11/10 11:33:52;;;;;;;;;;;;;;;14.44;45.78;100970.19;5097105;28;2540;-46
2023/11/10 11:36:18;;;;;;;;;;;;;;;14.37;45.32;100966.19;5095851;28;1976;-42
2023/11/10 11:38:44;;;;;;;;;;;;;;;14.30;44.82;100978.94;5094040;28;1200;-44
2023/11/10 11:41:12;;;;;;;;;;;;;;;14.27;44.73;100980.91;5088862;28;1308;-46
2023/11/10 11:43:46;;;;;;;;;;;;;;;14.24;44.41;100979.31;5094709;28;895;-43
2023/11/10 11:46:12;;;;;;;;;;;;;;;14.23;44.15;100972.28;5083379;28;1041;-46
2023/11/10 11:48:37;;;;;;;;;;;;;;;14.17;44.20;100967.38;5096160;28;860;-46
2023/11/10 11:51:04;;;;;;;;;;;;;;;14.17;44.12;100973.53;5094810;28;1043;-44
2023/11/10 11:53:30;;;;;;;;;;;;;;;14.47;45.46;100966.47;5095940;28;1124;-46
2023/11/10 11:55:55;;;;;;;;;;;;;;;15.03;45.99;100949.00;5096021;28;1974;-43
2023/11/10 11:58:21;;;;;;;;;;;;;;;14.56;46.09;100949.19;5095325;28;1041;-45
2023/11/10 12:00:46;;;;;;;;;;;;;;;14.50;45.49;100947.75;5095837;28;875;-42
2023/11/10 12:03:13;;;;;;;;;;;;;;;14.68;46.79;100943.13;5096018;28;1853;-50
2023/11/10 12:05:39;;;;;;;;;;;;;;;14.60;45.73;100939.28;5096114;28;1122;-46
2023/11/10 12:08:05;;;;;;;;;;;;;;;14.34;44.81;100937.25;5091522;28;1135;-46
2023/11/10 12:10:31;;;;;;;;;;;;;;;14.40;44.35;100930.72;5086505;28;1244;-46
2023/11/10 12:12:56;;;;;;;;;;;;;;;14.29;44.60;100932.25;5089629;28;1505;-43
2023/11/10 12:15:22;;;;;;;;;;;;;;;14.25;44.64;100924.56;5095734;28;1971;-43
2023/11/10 12:17:48;;;;;;;;;;;;;;;14.29;44.19;100920.81;5095918;28;1091;-45
2023/11/10 12:20:14;;;;;;;;;;;;;;;14.26;44.06;100911.28;5095735;28;1240;-43
2023/11/10 12:22:39;;;;;;;;;;;;;;;14.15;44.50;100913.69;5095448;28;1062;-42
2023/11/10 12:25:06;;;;;;;;;;;;;;;14.12;44.28;100905.94;5094354;28;1237;-46
2023/11/10 12:27:35;;;;;;;;;;;;;;;14.13;44.37;100907.66;5095420;28;1138;-42
2023/11/10 12:30:00;;;;;;;;;;;;;;;14.20;43.75;100903.69;5094744;28;1114;-43
2023/11/10 12:32:26;;;;;;;;;;;;;;;14.44;45.08;100900.50;5094024;28;1193;-43
2023/11/10 12:34:51;;;;;;;;;;;;;;;14.93;45.94;100885.16;5098252;28;2598;-44
2023/11/10 12:37:18;;;;;;;;;;;;;;;14.50;46.05;100876.28;5095672;28;1074;-47
2023/11/10 12:39:43;;;;;;;;;;;;;;;14.41;45.83;100868.94;5096142;28;1097;-49
2023/11/10 12:42:09;;;;;;;;;;;;;;;14.30;45.44;100875.72;5095425;28;1136;-47